createdAt,value
2023-01-10T00:03:00.049Z,5.07
2023-01-10T00:08:07.507Z,5.04
2023-01-10T00:13:25.973Z,5.02
2023-01-10T00:18:29.698Z,5.00
2023-01-10T00:23:33.482Z,4.93
2023-01-10T00:28:39.684Z,4.89
2023-01-10T00:33:44.214Z,4.88
2023-01-10T00:38:47.966Z,4.90
2023-01-10T00:43:57.706Z,4.91
2023-01-10T00:49:01.494Z,4.93
2023-01-10T00:54:10.537Z,4.92
2023-01-10T00:59:14.419Z,4.92
2023-01-10T01:04:18.999Z,4.90
2023-01-10T01:09:22.878Z,4.89
2023-01-10T01:14:27.245Z,4.89
2023-01-10T01:19:31.010Z,4.89
2023-01-10T01:24:36.521Z,4.87
2023-01-10T01:29:43.351Z,4.85
2023-01-10T01:34:48.153Z,4.82
2023-01-10T01:39:51.893Z,4.77
2023-01-10T01:45:35.190Z,4.74
2023-01-10T01:51:31.639Z,4.70
2023-01-10T01:56:45.038Z,4.67
2023-01-10T02:01:52.042Z,4.62
2023-01-10T02:06:57.628Z,4.56
2023-01-10T02:12:01.999Z,4.51
2023-01-10T02:17:08.506Z,4.45
2023-01-10T02:22:42.893Z,4.35
2023-01-10T02:28:14.196Z,4.18
2023-01-10T02:33:21.786Z,4.05
2023-01-10T02:38:54.761Z,3.95
2023-01-10T02:44:19.091Z,3.87
2023-01-10T02:49:24.422Z,3.83
2023-01-10T02:54:31.025Z,3.78
2023-01-10T02:59:57.583Z,3.71
2023-01-10T03:05:17.299Z,3.65
2023-01-10T03:10:33.129Z,3.59
2023-01-10T03:15:38.645Z,3.57
2023-01-10T03:20:44.660Z,3.60
2023-01-10T03:25:50.393Z,3.65
2023-01-10T03:31:08.034Z,3.65
2023-01-10T03:36:38.406Z,3.65
2023-01-10T03:41:54.835Z,3.68
2023-01-10T03:47:16.801Z,3.69
2023-01-10T03:52:21.074Z,3.70
2023-01-10T03:57:24.982Z,3.73
2023-01-10T04:02:32.778Z,3.78
2023-01-10T04:07:38.156Z,3.85
2023-01-10T04:12:42.375Z,3.92
2023-01-10T04:17:46.195Z,4.03
2023-01-10T04:22:51.647Z,4.15
2023-01-10T04:27:58.390Z,4.27
2023-01-10T04:33:02.103Z,4.36
2023-01-10T04:38:09.175Z,4.42
2023-01-10T04:43:13.052Z,4.46
2023-01-10T04:48:16.999Z,4.49
2023-01-10T04:53:21.514Z,4.50
2023-01-10T04:58:28.302Z,4.51
2023-01-10T05:03:32.013Z,4.52
2023-01-10T05:08:40.793Z,4.54
2023-01-10T05:13:46.502Z,4.56
2023-01-10T05:18:51.459Z,4.57
2023-01-10T05:23:55.171Z,4.59
2023-01-10T05:28:58.926Z,4.61
2023-01-10T05:34:02.921Z,4.65
2023-01-10T05:39:06.764Z,4.68
2023-01-10T05:44:10.973Z,4.70
2023-01-10T05:49:14.809Z,4.72
2023-01-10T05:54:19.461Z,4.76
2023-01-10T05:59:30.878Z,4.80
2023-01-10T06:04:35.700Z,4.82
2023-01-10T06:09:40.359Z,4.85
2023-01-10T06:14:45.459Z,4.87
2023-01-10T06:19:49.499Z,4.87
2023-01-10T06:24:56.822Z,4.88
2023-01-10T06:30:04.799Z,4.86
2023-01-10T06:35:10.282Z,4.84
2023-01-10T06:40:14.109Z,4.82
2023-01-10T06:45:18.017Z,4.81
2023-01-10T06:50:24.318Z,4.81
2023-01-10T06:55:28.957Z,4.84
2023-01-10T07:00:33.959Z,4.86
2023-01-10T07:05:37.788Z,4.87
2023-01-10T07:10:43.558Z,4.88
2023-01-10T07:15:47.334Z,4.90
2023-01-10T07:20:51.392Z,4.90
2023-01-10T07:25:55.347Z,4.92
2023-01-10T07:31:00.692Z,4.95
2023-01-10T07:36:06.977Z,4.99
2023-01-10T07:41:13.263Z,5.01
2023-01-10T07:46:18.212Z,5.04
2023-01-10T07:51:22.623Z,5.07
2023-01-10T07:56:26.373Z,5.11
2023-01-10T08:01:30.776Z,5.14
2023-01-10T08:06:34.799Z,5.17
2023-01-10T08:11:41.439Z,5.21
2023-01-10T08:16:48.939Z,5.24
2023-01-10T08:21:52.760Z,5.27
2023-01-10T08:26:59.753Z,5.30
2023-01-10T08:32:03.580Z,5.34
2023-01-10T08:37:10.490Z,5.37
2023-01-10T08:42:14.680Z,5.38
2023-01-10T08:47:19.421Z,5.40
2023-01-10T08:52:24.899Z,5.42
2023-01-10T08:57:28.769Z,5.45
2023-01-10T09:02:32.667Z,5.49
2023-01-10T09:07:42.921Z,5.56
2023-01-10T09:12:55.405Z,5.64
2023-01-10T09:18:02.262Z,5.73
2023-01-10T09:23:11.725Z,5.81
2023-01-10T09:28:16.983Z,5.89
2023-01-10T09:33:21.224Z,5.97
2023-01-10T09:38:25.153Z,6.05
2023-01-10T09:43:34.784Z,6.11
2023-01-10T09:49:01.966Z,6.19
2023-01-10T09:54:12.847Z,6.31
2023-01-10T09:59:33.399Z,6.41
2023-01-10T10:04:40.657Z,6.44
2023-01-10T10:09:45.105Z,6.43
2023-01-10T10:15:28.135Z,6.48
2023-01-10T10:21:39.537Z,6.60
2023-01-10T10:26:58.221Z,6.67
2023-01-10T10:32:40.953Z,6.71
2023-01-10T10:37:50.952Z,6.75
2023-01-10T10:42:56.996Z,6.75
2023-01-10T10:48:26.771Z,6.78
2023-01-10T10:53:34.111Z,6.82
2023-01-10T10:58:40.853Z,6.86
2023-01-10T11:03:58.429Z,6.90
2023-01-10T11:09:05.491Z,6.90
2023-01-10T11:14:09.827Z,6.92
2023-01-10T11:19:27.931Z,6.93
2023-01-10T11:24:37.726Z,6.97
2023-01-10T11:29:48.562Z,7.03
2023-01-10T11:35:02.708Z,7.04
2023-01-10T11:40:27.571Z,7.08
2023-01-10T11:45:34.736Z,7.15
2023-01-10T11:50:45.377Z,7.21
2023-01-10T11:55:56.039Z,7.25
2023-01-10T12:00:59.815Z,7.31
2023-01-10T12:06:08.755Z,7.35
2023-01-10T12:11:38.990Z,7.41
2023-01-10T12:16:43.289Z,7.42
2023-01-10T12:21:47.863Z,7.40
2023-01-10T12:26:54.301Z,7.40
2023-01-10T12:31:59.363Z,7.42
2023-01-10T12:37:15.333Z,7.43
2023-01-10T12:42:46.603Z,7.41
2023-01-10T12:47:56.443Z,7.37
2023-01-10T12:53:09.713Z,7.38
2023-01-10T12:58:22.635Z,7.34
2023-01-10T13:03:31.799Z,7.27
2023-01-10T13:08:38.859Z,7.24
2023-01-10T13:13:52.417Z,7.24
2023-01-10T13:19:31.998Z,7.20
2023-01-10T13:24:35.738Z,7.04
2023-01-10T13:29:42.463Z,6.82
2023-01-10T13:34:46.506Z,6.60
2023-01-10T13:40:01.195Z,6.44
2023-01-10T13:45:26.352Z,6.34
2023-01-10T13:50:45.315Z,6.30
2023-01-10T13:56:28.874Z,6.31
2023-01-10T14:01:56.816Z,6.33
2023-01-10T14:07:14.955Z,6.33
2023-01-10T14:12:22.124Z,6.30
2023-01-10T14:17:29.064Z,6.27
2023-01-10T14:22:36.073Z,6.24
2023-01-10T14:27:49.652Z,6.21
2023-01-10T14:32:58.038Z,6.19
2023-01-10T14:38:05.964Z,6.18
2023-01-10T14:43:15.124Z,6.17
2023-01-10T14:48:30.315Z,6.13
2023-01-10T14:53:34.847Z,6.08
2023-01-10T14:58:38.640Z,6.01
2023-01-10T15:03:48.309Z,5.93
2023-01-10T15:09:00.467Z,5.89
2023-01-10T15:14:08.661Z,5.84
2023-01-10T15:19:23.321Z,5.79
2023-01-10T15:24:34.521Z,5.75
2023-01-10T15:29:44.904Z,5.72
2023-01-10T15:34:51.914Z,5.70
2023-01-10T15:39:56.070Z,5.67
2023-01-10T15:45:38.506Z,5.63
2023-01-10T15:50:55.451Z,5.60
2023-01-10T15:56:10.939Z,5.60
2023-01-10T16:01:16.230Z,5.59
2023-01-10T16:06:23.600Z,5.52
2023-01-10T16:12:10.348Z,5.42
2023-01-10T16:17:14.691Z,5.32
2023-01-10T16:22:19.773Z,5.26
2023-01-10T16:27:23.516Z,5.23
2023-01-10T16:32:27.503Z,5.21
2023-01-10T16:37:31.532Z,5.20
2023-01-10T16:42:54.043Z,5.20
2023-01-10T16:47:57.817Z,5.18
2023-01-10T16:53:01.665Z,5.17
2023-01-10T16:58:05.662Z,5.12
2023-01-10T17:03:14.682Z,5.03
2023-01-10T17:08:22.072Z,4.93
2023-01-10T17:13:32.855Z,4.86
2023-01-10T17:18:39.609Z,4.84
2023-01-10T17:23:43.676Z,4.86
2023-01-10T17:28:50.024Z,4.89
2023-01-10T17:33:55.087Z,4.93
2023-01-10T17:38:59.941Z,5.01
2023-01-10T17:44:03.793Z,5.12
2023-01-10T17:49:07.597Z,5.18
2023-01-10T17:54:11.909Z,5.23
2023-01-10T17:59:15.729Z,5.23
2023-01-10T18:04:20.066Z,5.21
2023-01-10T18:09:24.533Z,5.15
2023-01-10T18:14:37.475Z,5.09
2023-01-10T18:19:41.315Z,5.02
2023-01-10T18:24:47.427Z,4.99
2023-01-10T18:29:52.499Z,4.99
2023-01-10T18:34:56.424Z,4.98
2023-01-10T18:40:06.338Z,4.97
2023-01-10T18:45:13.277Z,4.96
2023-01-10T18:50:18.668Z,4.92
2023-01-10T18:55:23.880Z,4.89
2023-01-10T19:00:31.054Z,4.85
2023-01-10T19:05:35.773Z,4.79
2023-01-10T19:11:03.624Z,4.74
2023-01-10T19:16:32.767Z,4.69
2023-01-10T19:21:43.893Z,4.64
2023-01-10T19:26:49.025Z,4.59
2023-01-10T19:31:55.427Z,4.56
2023-01-10T19:37:03.098Z,4.56
2023-01-10T19:42:08.485Z,4.58
2023-01-10T19:47:13.174Z,4.59
2023-01-10T19:52:20.554Z,4.60
2023-01-10T19:57:26.112Z,4.62
2023-01-10T20:02:30.974Z,4.60
2023-01-10T20:07:35.438Z,4.56
2023-01-10T20:12:41.033Z,4.54
2023-01-10T20:17:47.870Z,4.56
2023-01-10T20:22:55.390Z,4.58
2023-01-10T20:27:59.820Z,4.57
2023-01-10T20:33:04.316Z,4.54
2023-01-10T20:38:12.408Z,4.49
2023-01-10T20:43:18.025Z,4.45
2023-01-10T20:48:24.908Z,4.40
2023-01-10T20:53:29.272Z,4.35
2023-01-10T20:58:35.332Z,4.33
2023-01-10T21:03:43.681Z,4.34
2023-01-10T21:08:49.461Z,4.35
2023-01-10T21:13:53.870Z,4.36
2023-01-10T21:19:02.041Z,4.36
2023-01-10T21:24:06.123Z,4.37
2023-01-10T21:29:12.207Z,4.38
2023-01-10T21:34:16.740Z,4.38
2023-01-10T21:39:20.461Z,4.40
2023-01-10T21:44:26.294Z,4.40
2023-01-10T21:49:31.009Z,4.41
2023-01-10T21:54:52.344Z,4.44
2023-01-10T21:59:56.062Z,4.44
2023-01-10T22:04:59.705Z,4.43
2023-01-10T22:10:08.157Z,4.44
2023-01-10T22:15:12.597Z,4.46
2023-01-10T22:20:17.409Z,4.52
2023-01-10T22:25:21.737Z,4.54
2023-01-10T22:30:26.017Z,4.53
2023-01-10T22:35:30.272Z,4.51
2023-01-10T22:40:35.077Z,4.48
2023-01-10T22:45:44.290Z,4.44
2023-01-10T22:50:50.337Z,4.40
2023-01-10T22:55:55.378Z,4.36
2023-01-10T23:01:04.778Z,4.31
2023-01-10T23:06:09.364Z,4.30
2023-01-10T23:11:18.718Z,4.28
2023-01-10T23:16:29.040Z,4.25
2023-01-10T23:21:33.221Z,4.18
2023-01-10T23:26:36.993Z,4.11
2023-01-10T23:31:40.895Z,4.05
2023-01-10T23:36:44.590Z,4.03
2023-01-10T23:41:48.275Z,4.06
2023-01-10T23:46:51.872Z,4.05
2023-01-10T23:51:55.795Z,3.97
2023-01-10T23:57:00.324Z,3.90
